Terminal Aerodrome Forecast
Issued by NWS St Louis, MO

Home | Current Version | Previous Version | Text Only | Print | Product List | Glossary On
Versions: 1 2 3 4 5 6 7 8 9 10 11 12 13 14 15 16 17 18 19 20 21 22 23 24 25 26 27
000
FTUS43 KLSX 250300 AAA
TAFSTL
TAF AMD
KSTL 250306Z 2503/2606 19006KT P6SM FEW040 BKN250
     FM250900 25005KT 6SM BR FEW030 SCT250
      TEMPO 2511/2513 4SM BR
     FM251500 30007KT P6SM SKC
     FM260000 VRB04KT P6SM SKC=

USA.gov is the U.S. government's official web portal to all federal, state and local government web resources and services.